Clear Lake, South Dakota
Current Conditions -  °F | °C
As of 3:33 AM on Saturday 20 Dec 2014 (Local Time) from KCNB Reporting Station
Overcast Overcast  
Wind Chill: 25°   Ceiling: 800
Heat Index: 32°   Visibility: 7mi
Dew Point: 29°   Wind: 7mph
Humidity: 91%   Direction: 190°S
Pressure: 30.07"   Gusts: NA
Location:  44.75°N, 96.68°W
Report Text: KCNB 200933Z AUTO 19006KT 7SM OVC008 00/M01 A3007 RMK AO2 T10011014
Loading
Personal Weather Stations






























Interactive Weather Map New forecast layout! Learn more

10-Day Weather Forecast

Advertisements
Track Severe Weather on mobile